sensor_id;sensor_type;location;lat;lon;timestamp;P1;durP1;ratioP1;P2;durP2;ratioP2
8361;SDS011;4218;48.326;14.304;2024-02-15T00:00:09;14.33;;;13.30;;
8361;SDS011;4218;48.326;14.304;2024-02-15T00:02:35;15.23;;;14.43;;
8361;SDS011;4218;48.326;14.304;2024-02-15T00:05:01;17.60;;;16.53;;
8361;SDS011;4218;48.326;14.304;2024-02-15T00:07:27;16.13;;;15.30;;
8361;SDS011;4218;48.326;14.304;2024-02-15T00:09:52;13.97;;;13.07;;
8361;SDS011;4218;48.326;14.304;2024-02-15T00:12:19;13.77;;;12.87;;
8361;SDS011;4218;48.326;14.304;2024-02-15T00:14:45;14.13;;;13.13;;
8361;SDS011;4218;48.326;14.304;2024-02-15T00:17:10;14.60;;;13.40;;
8361;SDS011;4218;48.326;14.304;2024-02-15T00:19:36;14.07;;;13.37;;
8361;SDS011;4218;48.326;14.304;2024-02-15T00:22:05;16.70;;;15.70;;
8361;SDS011;4218;48.326;14.304;2024-02-15T00:24:31;14.43;;;13.43;;
8361;SDS011;4218;48.326;14.304;2024-02-15T00:26:56;12.57;;;11.57;;
8361;SDS011;4218;48.326;14.304;2024-02-15T00:29:22;12.77;;;11.90;;
8361;SDS011;4218;48.326;14.304;2024-02-15T00:31:48;13.07;;;12.27;;
8361;SDS011;4218;48.326;14.304;2024-02-15T00:34:14;15.60;;;14.23;;
8361;SDS011;4218;48.326;14.304;2024-02-15T00:36:44;14.43;;;13.60;;
8361;SDS011;4218;48.326;14.304;2024-02-15T00:39:10;14.00;;;13.20;;
8361;SDS011;4218;48.326;14.304;2024-02-15T00:41:43;14.77;;;13.80;;
8361;SDS011;4218;48.326;14.304;2024-02-15T00:44:09;16.23;;;14.97;;
8361;SDS011;4218;48.326;14.304;2024-02-15T00:46:37;14.33;;;13.37;;
8361;SDS011;4218;48.326;14.304;2024-02-15T00:49:03;13.10;;;12.10;;
8361;SDS011;4218;48.326;14.304;2024-02-15T00:51:31;12.50;;;11.80;;
8361;SDS011;4218;48.326;14.304;2024-02-15T00:53:58;13.53;;;12.63;;
8361;SDS011;4218;48.326;14.304;2024-02-15T00:56:26;16.53;;;15.27;;
8361;SDS011;4218;48.326;14.304;2024-02-15T00:58:52;16.43;;;15.60;;
8361;SDS011;4218;48.326;14.304;2024-02-15T01:01:18;22.97;;;21.57;;
8361;SDS011;4218;48.326;14.304;2024-02-15T01:03:44;20.50;;;19.23;;
8361;SDS011;4218;48.326;14.304;2024-02-15T01:06:09;17.83;;;17.03;;
8361;SDS011;4218;48.326;14.304;2024-02-15T01:08:35;16.67;;;15.77;;
8361;SDS011;4218;48.326;14.304;2024-02-15T01:11:01;17.00;;;16.10;;
8361;SDS011;4218;48.326;14.304;2024-02-15T01:13:27;17.77;;;16.77;;
8361;SDS011;4218;48.326;14.304;2024-02-15T01:15:53;17.00;;;16.00;;
8361;SDS011;4218;48.326;14.304;2024-02-15T01:18:18;15.43;;;14.60;;
8361;SDS011;4218;48.326;14.304;2024-02-15T01:20:44;15.50;;;14.50;;
8361;SDS011;4218;48.326;14.304;2024-02-15T01:23:10;16.57;;;15.63;;
8361;SDS011;4218;48.326;14.304;2024-02-15T01:25:39;15.87;;;14.97;;
8361;SDS011;4218;48.326;14.304;2024-02-15T01:28:05;16.30;;;15.33;;
8361;SDS011;4218;48.326;14.304;2024-02-15T01:30:30;19.93;;;18.83;;
8361;SDS011;4218;48.326;14.304;2024-02-15T01:32:56;15.73;;;14.90;;
8361;SDS011;4218;48.326;14.304;2024-02-15T01:35:22;23.50;;;21.93;;
8361;SDS011;4218;48.326;14.304;2024-02-15T01:37:50;17.63;;;16.33;;
8361;SDS011;4218;48.326;14.304;2024-02-15T01:40:16;14.87;;;13.63;;
8361;SDS011;4218;48.326;14.304;2024-02-15T01:42:43;15.57;;;14.43;;
8361;SDS011;4218;48.326;14.304;2024-02-15T01:45:10;15.63;;;14.73;;
8361;SDS011;4218;48.326;14.304;2024-02-15T01:47:37;20.47;;;19.37;;
8361;SDS011;4218;48.326;14.304;2024-02-15T01:50:05;21.50;;;20.40;;
8361;SDS011;4218;48.326;14.304;2024-02-15T01:52:31;22.17;;;20.97;;
8361;SDS011;4218;48.326;14.304;2024-02-15T01:54:56;23.27;;;22.00;;
8361;SDS011;4218;48.326;14.304;2024-02-15T01:57:24;16.07;;;14.97;;
8361;SDS011;4218;48.326;14.304;2024-02-15T01:59:50;12.90;;;12.20;;
8361;SDS011;4218;48.326;14.304;2024-02-15T02:02:18;14.23;;;13.33;;
8361;SDS011;4218;48.326;14.304;2024-02-15T02:04:45;13.20;;;12.50;;
8361;SDS011;4218;48.326;14.304;2024-02-15T02:07:11;13.90;;;12.93;;
8361;SDS011;4218;48.326;14.304;2024-02-15T02:09:39;14.57;;;13.73;;
8361;SDS011;4218;48.326;14.304;2024-02-15T02:12:05;17.50;;;16.23;;
8361;SDS011;4218;48.326;14.304;2024-02-15T02:14:32;21.00;;;19.90;;
8361;SDS011;4218;48.326;14.304;2024-02-15T02:17:10;19.80;;;18.67;;
8361;SDS011;4218;48.326;14.304;2024-02-15T02:19:36;20.40;;;19.30;;
8361;SDS011;4218;48.326;14.304;2024-02-15T02:22:04;14.07;;;13.13;;
8361;SDS011;4218;48.326;14.304;2024-02-15T02:24:30;13.57;;;12.67;;
8361;SDS011;4218;48.326;14.304;2024-02-15T02:27:03;13.50;;;12.80;;
8361;SDS011;4218;48.326;14.304;2024-02-15T02:29:30;14.80;;;13.90;;
8361;SDS011;4218;48.326;14.304;2024-02-15T02:31:57;13.97;;;13.13;;
8361;SDS011;4218;48.326;14.304;2024-02-15T02:34:22;15.13;;;14.23;;
8361;SDS011;4218;48.326;14.304;2024-02-15T02:36:47;15.27;;;14.40;;
8361;SDS011;4218;48.326;14.304;2024-02-15T02:39:15;24.03;;;22.73;;
8361;SDS011;4218;48.326;14.304;2024-02-15T02:41:41;20.60;;;19.13;;
8361;SDS011;4218;48.326;14.304;2024-02-15T02:44:07;18.00;;;16.90;;
8361;SDS011;4218;48.326;14.304;2024-02-15T02:46:33;18.63;;;17.57;;
8361;SDS011;4218;48.326;14.304;2024-02-15T02:48:58;19.23;;;18.13;;
8361;SDS011;4218;48.326;14.304;2024-02-15T02:51:24;19.27;;;18.27;;
8361;SDS011;4218;48.326;14.304;2024-02-15T02:53:49;20.67;;;19.47;;
8361;SDS011;4218;48.326;14.304;2024-02-15T02:56:17;15.87;;;15.03;;
8361;SDS011;4218;48.326;14.304;2024-02-15T02:58:46;16.20;;;15.27;;
8361;SDS011;4218;48.326;14.304;2024-02-15T03:01:12;22.23;;;21.07;;
8361;SDS011;4218;48.326;14.304;2024-02-15T03:03:38;14.87;;;14.13;;
8361;SDS011;4218;48.326;14.304;2024-02-15T03:06:04;14.10;;;13.20;;
8361;SDS011;4218;48.326;14.304;2024-02-15T03:08:30;23.43;;;22.03;;
8361;SDS011;4218;48.326;14.304;2024-02-15T03:10:56;16.43;;;15.37;;
8361;SDS011;4218;48.326;14.304;2024-02-15T03:13:23;18.40;;;17.30;;
8361;SDS011;4218;48.326;14.304;2024-02-15T03:15:48;17.30;;;16.20;;
8361;SDS011;4218;48.326;14.304;2024-02-15T03:18:17;15.97;;;14.97;;
8361;SDS011;4218;48.326;14.304;2024-02-15T03:20:43;16.07;;;15.07;;
8361;SDS011;4218;48.326;14.304;2024-02-15T03:23:09;21.97;;;20.67;;
8361;SDS011;4218;48.326;14.304;2024-02-15T03:25:36;21.33;;;20.13;;
8361;SDS011;4218;48.326;14.304;2024-02-15T03:28:02;21.70;;;20.17;;
8361;SDS011;4218;48.326;14.304;2024-02-15T03:30:30;17.57;;;16.57;;
8361;SDS011;4218;48.326;14.304;2024-02-15T03:32:58;22.93;;;21.70;;
8361;SDS011;4218;48.326;14.304;2024-02-15T03:35:25;17.20;;;16.13;;
8361;SDS011;4218;48.326;14.304;2024-02-15T03:37:51;16.73;;;15.73;;
8361;SDS011;4218;48.326;14.304;2024-02-15T03:40:18;15.80;;;14.70;;
8361;SDS011;4218;48.326;14.304;2024-02-15T03:42:44;24.00;;;22.43;;
8361;SDS011;4218;48.326;14.304;2024-02-15T03:45:11;15.50;;;14.70;;
8361;SDS011;4218;48.326;14.304;2024-02-15T03:47:37;17.97;;;16.87;;
8361;SDS011;4218;48.326;14.304;2024-02-15T03:50:03;19.80;;;18.53;;
8361;SDS011;4218;48.326;14.304;2024-02-15T03:52:35;15.70;;;14.83;;
8361;SDS011;4218;48.326;14.304;2024-02-15T03:55:01;17.17;;;16.07;;
8361;SDS011;4218;48.326;14.304;2024-02-15T03:57:27;14.60;;;13.80;;
8361;SDS011;4218;48.326;14.304;2024-02-15T03:59:54;15.03;;;14.03;;
8361;SDS011;4218;48.326;14.304;2024-02-15T04:02:22;16.73;;;15.63;;
8361;SDS011;4218;48.326;14.304;2024-02-15T04:04:49;13.73;;;12.87;;
8361;SDS011;4218;48.326;14.304;2024-02-15T04:07:18;15.83;;;14.63;;
8361;SDS011;4218;48.326;14.304;2024-02-15T04:09:48;15.10;;;14.10;;
8361;SDS011;4218;48.326;14.304;2024-02-15T04:12:14;16.07;;;15.17;;
8361;SDS011;4218;48.326;14.304;2024-02-15T04:14:40;16.03;;;15.00;;
8361;SDS011;4218;48.326;14.304;2024-02-15T04:17:06;21.67;;;20.53;;
8361;SDS011;4218;48.326;14.304;2024-02-15T04:19:32;18.97;;;17.87;;
8361;SDS011;4218;48.326;14.304;2024-02-15T04:21:58;15.93;;;14.67;;
8361;SDS011;4218;48.326;14.304;2024-02-15T04:24:25;17.27;;;16.17;;
8361;SDS011;4218;48.326;14.304;2024-02-15T04:26:51;18.43;;;17.33;;
8361;SDS011;4218;48.326;14.304;2024-02-15T04:29:17;28.10;;;26.33;;
8361;SDS011;4218;48.326;14.304;2024-02-15T04:31:46;16.67;;;15.30;;
8361;SDS011;4218;48.326;14.304;2024-02-15T04:34:18;21.17;;;20.03;;
8361;SDS011;4218;48.326;14.304;2024-02-15T04:36:45;15.33;;;14.43;;
8361;SDS011;4218;48.326;14.304;2024-02-15T04:39:17;16.40;;;15.30;;
8361;SDS011;4218;48.326;14.304;2024-02-15T04:41:55;19.23;;;18.17;;
8361;SDS011;4218;48.326;14.304;2024-02-15T04:44:20;23.97;;;22.70;;
8361;SDS011;4218;48.326;14.304;2024-02-15T04:46:46;14.80;;;13.60;;
8361;SDS011;4218;48.326;14.304;2024-02-15T04:49:12;17.77;;;16.60;;
8361;SDS011;4218;48.326;14.304;2024-02-15T04:51:39;17.57;;;16.57;;
8361;SDS011;4218;48.326;14.304;2024-02-15T04:54:06;14.77;;;13.87;;
8361;SDS011;4218;48.326;14.304;2024-02-15T04:56:32;16.20;;;15.17;;
8361;SDS011;4218;48.326;14.304;2024-02-15T04:58:58;32.90;;;31.30;;
8361;SDS011;4218;48.326;14.304;2024-02-15T05:01:23;34.03;;;31.97;;
8361;SDS011;4218;48.326;14.304;2024-02-15T05:03:49;23.40;;;21.90;;
8361;SDS011;4218;48.326;14.304;2024-02-15T05:06:16;24.03;;;22.70;;
8361;SDS011;4218;48.326;14.304;2024-02-15T05:08:41;26.30;;;24.67;;
8361;SDS011;4218;48.326;14.304;2024-02-15T05:11:10;16.27;;;15.03;;
8361;SDS011;4218;48.326;14.304;2024-02-15T05:13:47;19.07;;;17.87;;
8361;SDS011;4218;48.326;14.304;2024-02-15T05:16:15;38.07;;;35.63;;
8361;SDS011;4218;48.326;14.304;2024-02-15T05:18:45;48.93;;;46.23;;
8361;SDS011;4218;48.326;14.304;2024-02-15T05:21:11;89.57;;;85.33;;
8361;SDS011;4218;48.326;14.304;2024-02-15T05:23:39;37.03;;;35.10;;
8361;SDS011;4218;48.326;14.304;2024-02-15T05:26:05;18.03;;;16.77;;
8361;SDS011;4218;48.326;14.304;2024-02-15T05:28:31;19.43;;;18.07;;
8361;SDS011;4218;48.326;14.304;2024-02-15T05:31:10;21.37;;;19.97;;
8361;SDS011;4218;48.326;14.304;2024-02-15T05:33:45;29.40;;;27.63;;
8361;SDS011;4218;48.326;14.304;2024-02-15T05:36:21;23.37;;;21.60;;
8361;SDS011;4218;48.326;14.304;2024-02-15T05:38:53;26.00;;;24.27;;
8361;SDS011;4218;48.326;14.304;2024-02-15T05:41:19;19.97;;;18.37;;
8361;SDS011;4218;48.326;14.304;2024-02-15T05:43:46;17.70;;;16.37;;
8361;SDS011;4218;48.326;14.304;2024-02-15T05:46:14;16.17;;;14.53;;
8361;SDS011;4218;48.326;14.304;2024-02-15T05:48:40;17.53;;;15.93;;
8361;SDS011;4218;48.326;14.304;2024-02-15T05:51:06;16.07;;;14.37;;
8361;SDS011;4218;48.326;14.304;2024-02-15T05:53:34;16.23;;;15.10;;
8361;SDS011;4218;48.326;14.304;2024-02-15T05:56:03;18.03;;;16.87;;
8361;SDS011;4218;48.326;14.304;2024-02-15T05:58:34;18.33;;;16.93;;
8361;SDS011;4218;48.326;14.304;2024-02-15T06:01:00;18.07;;;16.87;;
8361;SDS011;4218;48.326;14.304;2024-02-15T06:03:28;16.87;;;15.90;;
8361;SDS011;4218;48.326;14.304;2024-02-15T06:05:53;17.40;;;16.20;;
8361;SDS011;4218;48.326;14.304;2024-02-15T06:08:23;16.13;;;14.93;;
8361;SDS011;4218;48.326;14.304;2024-02-15T06:10:49;15.47;;;14.57;;
8361;SDS011;4218;48.326;14.304;2024-02-15T06:13:15;15.87;;;14.67;;
8361;SDS011;4218;48.326;14.304;2024-02-15T06:15:42;18.30;;;16.40;;
8361;SDS011;4218;48.326;14.304;2024-02-15T06:18:07;17.33;;;15.97;;
8361;SDS011;4218;48.326;14.304;2024-02-15T06:20:35;17.27;;;16.13;;
8361;SDS011;4218;48.326;14.304;2024-02-15T06:23:01;19.27;;;17.63;;
8361;SDS011;4218;48.326;14.304;2024-02-15T06:25:30;17.03;;;15.53;;
8361;SDS011;4218;48.326;14.304;2024-02-15T06:27:56;21.40;;;19.80;;
8361;SDS011;4218;48.326;14.304;2024-02-15T06:30:27;18.33;;;16.93;;
8361;SDS011;4218;48.326;14.304;2024-02-15T06:33:12;21.60;;;19.83;;
8361;SDS011;4218;48.326;14.304;2024-02-15T06:35:55;24.83;;;23.00;;
8361;SDS011;4218;48.326;14.304;2024-02-15T06:38:39;22.50;;;21.00;;
8361;SDS011;4218;48.326;14.304;2024-02-15T06:41:23;22.80;;;21.30;;
8361;SDS011;4218;48.326;14.304;2024-02-15T06:43:49;30.93;;;28.83;;
8361;SDS011;4218;48.326;14.304;2024-02-15T06:46:14;29.23;;;27.30;;
8361;SDS011;4218;48.326;14.304;2024-02-15T06:48:41;34.97;;;32.53;;
8361;SDS011;4218;48.326;14.304;2024-02-15T06:51:11;24.50;;;22.77;;
8361;SDS011;4218;48.326;14.304;2024-02-15T06:53:39;33.97;;;31.57;;
8361;SDS011;4218;48.326;14.304;2024-02-15T06:56:05;22.13;;;20.03;;
8361;SDS011;4218;48.326;14.304;2024-02-15T06:58:33;23.40;;;21.80;;
8361;SDS011;4218;48.326;14.304;2024-02-15T07:00:59;20.57;;;19.17;;
8361;SDS011;4218;48.326;14.304;2024-02-15T07:03:24;25.33;;;23.43;;
8361;SDS011;4218;48.326;14.304;2024-02-15T07:05:54;19.77;;;18.47;;
8361;SDS011;4218;48.326;14.304;2024-02-15T07:08:21;19.53;;;18.13;;
8361;SDS011;4218;48.326;14.304;2024-02-15T07:10:48;19.87;;;18.07;;
8361;SDS011;4218;48.326;14.304;2024-02-15T07:13:14;19.27;;;17.40;;
8361;SDS011;4218;48.326;14.304;2024-02-15T07:15:39;23.27;;;21.53;;
8361;SDS011;4218;48.326;14.304;2024-02-15T07:18:05;20.93;;;19.47;;
8361;SDS011;4218;48.326;14.304;2024-02-15T07:20:34;21.33;;;19.73;;
8361;SDS011;4218;48.326;14.304;2024-02-15T07:23:00;21.67;;;20.10;;
8361;SDS011;4218;48.326;14.304;2024-02-15T07:25:25;22.07;;;20.27;;
8361;SDS011;4218;48.326;14.304;2024-02-15T07:27:51;21.97;;;20.07;;
8361;SDS011;4218;48.326;14.304;2024-02-15T07:30:17;18.70;;;17.10;;
8361;SDS011;4218;48.326;14.304;2024-02-15T07:32:43;18.80;;;17.30;;
8361;SDS011;4218;48.326;14.304;2024-02-15T07:35:08;25.50;;;23.70;;
8361;SDS011;4218;48.326;14.304;2024-02-15T07:37:34;21.50;;;19.77;;
8361;SDS011;4218;48.326;14.304;2024-02-15T07:40:00;22.67;;;21.17;;
8361;SDS011;4218;48.326;14.304;2024-02-15T07:42:26;24.73;;;22.83;;
8361;SDS011;4218;48.326;14.304;2024-02-15T07:44:51;19.47;;;17.97;;
8361;SDS011;4218;48.326;14.304;2024-02-15T07:47:20;19.40;;;17.87;;
8361;SDS011;4218;48.326;14.304;2024-02-15T07:49:49;24.97;;;23.03;;
8361;SDS011;4218;48.326;14.304;2024-02-15T07:52:15;32.30;;;29.77;;
8361;SDS011;4218;48.326;14.304;2024-02-15T07:54:40;18.03;;;16.43;;
8361;SDS011;4218;48.326;14.304;2024-02-15T07:57:06;19.00;;;17.60;;
8361;SDS011;4218;48.326;14.304;2024-02-15T07:59:31;22.00;;;20.20;;
8361;SDS011;4218;48.326;14.304;2024-02-15T08:01:56;15.90;;;14.70;;
8361;SDS011;4218;48.326;14.304;2024-02-15T08:04:23;18.43;;;17.07;;
8361;SDS011;4218;48.326;14.304;2024-02-15T08:06:49;21.10;;;19.60;;
8361;SDS011;4218;48.326;14.304;2024-02-15T08:09:17;20.67;;;18.97;;
8361;SDS011;4218;48.326;14.304;2024-02-15T08:11:45;21.50;;;19.87;;
8361;SDS011;4218;48.326;14.304;2024-02-15T08:14:10;20.80;;;18.10;;
8361;SDS011;4218;48.326;14.304;2024-02-15T08:16:36;19.57;;;17.97;;
8361;SDS011;4218;48.326;14.304;2024-02-15T08:19:02;18.83;;;17.17;;
8361;SDS011;4218;48.326;14.304;2024-02-15T08:21:30;20.40;;;17.30;;
8361;SDS011;4218;48.326;14.304;2024-02-15T08:24:04;22.20;;;20.20;;
8361;SDS011;4218;48.326;14.304;2024-02-15T08:26:38;21.97;;;20.30;;
8361;SDS011;4218;48.326;14.304;2024-02-15T08:29:04;20.87;;;19.40;;
8361;SDS011;4218;48.326;14.304;2024-02-15T08:31:31;20.60;;;19.10;;
8361;SDS011;4218;48.326;14.304;2024-02-15T08:33:57;19.17;;;17.40;;
8361;SDS011;4218;48.326;14.304;2024-02-15T08:36:22;20.30;;;18.30;;
8361;SDS011;4218;48.326;14.304;2024-02-15T08:38:49;22.53;;;20.57;;
8361;SDS011;4218;48.326;14.304;2024-02-15T08:41:15;19.60;;;18.00;;
8361;SDS011;4218;48.326;14.304;2024-02-15T08:43:42;19.50;;;18.03;;
8361;SDS011;4218;48.326;14.304;2024-02-15T08:46:08;19.23;;;17.47;;
8361;SDS011;4218;48.326;14.304;2024-02-15T08:48:35;25.73;;;23.40;;
8361;SDS011;4218;48.326;14.304;2024-02-15T08:51:01;27.67;;;25.63;;
8361;SDS011;4218;48.326;14.304;2024-02-15T08:53:27;24.27;;;22.40;;
8361;SDS011;4218;48.326;14.304;2024-02-15T08:55:52;24.60;;;22.60;;
8361;SDS011;4218;48.326;14.304;2024-02-15T08:58:19;23.07;;;21.10;;
8361;SDS011;4218;48.326;14.304;2024-02-15T09:00:46;19.50;;;17.90;;
8361;SDS011;4218;48.326;14.304;2024-02-15T09:03:12;21.97;;;19.90;;
8361;SDS011;4218;48.326;14.304;2024-02-15T09:05:38;21.83;;;19.80;;
8361;SDS011;4218;48.326;14.304;2024-02-15T09:08:03;20.77;;;18.87;;
8361;SDS011;4218;48.326;14.304;2024-02-15T09:10:32;22.93;;;20.43;;
8361;SDS011;4218;48.326;14.304;2024-02-15T09:12:57;20.17;;;17.60;;
8361;SDS011;4218;48.326;14.304;2024-02-15T09:15:23;20.23;;;18.13;;
8361;SDS011;4218;48.326;14.304;2024-02-15T09:17:49;22.77;;;20.57;;
8361;SDS011;4218;48.326;14.304;2024-02-15T09:20:15;23.87;;;21.33;;
8361;SDS011;4218;48.326;14.304;2024-02-15T09:22:44;23.43;;;20.90;;
8361;SDS011;4218;48.326;14.304;2024-02-15T09:25:12;26.23;;;21.17;;
8361;SDS011;4218;48.326;14.304;2024-02-15T09:27:38;28.60;;;21.77;;
8361;SDS011;4218;48.326;14.304;2024-02-15T09:30:07;33.27;;;24.70;;
8361;SDS011;4218;48.326;14.304;2024-02-15T09:32:35;25.00;;;22.40;;
8361;SDS011;4218;48.326;14.304;2024-02-15T09:35:01;25.70;;;21.23;;
8361;SDS011;4218;48.326;14.304;2024-02-15T09:37:26;23.00;;;20.67;;
8361;SDS011;4218;48.326;14.304;2024-02-15T09:39:53;23.80;;;21.80;;
8361;SDS011;4218;48.326;14.304;2024-02-15T09:42:20;23.50;;;21.30;;
8361;SDS011;4218;48.326;14.304;2024-02-15T09:44:45;24.93;;;21.97;;
8361;SDS011;4218;48.326;14.304;2024-02-15T09:47:11;28.87;;;26.03;;
8361;SDS011;4218;48.326;14.304;2024-02-15T09:49:38;34.97;;;27.57;;
8361;SDS011;4218;48.326;14.304;2024-02-15T09:52:07;27.17;;;24.23;;
8361;SDS011;4218;48.326;14.304;2024-02-15T09:54:40;30.30;;;27.30;;
8361;SDS011;4218;48.326;14.304;2024-02-15T09:57:09;28.00;;;23.03;;
8361;SDS011;4218;48.326;14.304;2024-02-15T09:59:38;23.17;;;21.07;;
8361;SDS011;4218;48.326;14.304;2024-02-15T10:02:05;23.33;;;20.93;;
8361;SDS011;4218;48.326;14.304;2024-02-15T10:04:35;25.37;;;23.07;;
8361;SDS011;4218;48.326;14.304;2024-02-15T10:07:07;21.50;;;20.03;;
8361;SDS011;4218;48.326;14.304;2024-02-15T10:09:33;27.50;;;25.00;;
8361;SDS011;4218;48.326;14.304;2024-02-15T10:12:01;22.53;;;20.53;;
8361;SDS011;4218;48.326;14.304;2024-02-15T10:14:28;21.13;;;19.17;;
8361;SDS011;4218;48.326;14.304;2024-02-15T10:16:55;21.77;;;20.07;;
8361;SDS011;4218;48.326;14.304;2024-02-15T10:19:21;27.17;;;24.60;;
8361;SDS011;4218;48.326;14.304;2024-02-15T10:21:53;27.20;;;24.60;;
8361;SDS011;4218;48.326;14.304;2024-02-15T10:24:23;24.17;;;22.00;;
8361;SDS011;4218;48.326;14.304;2024-02-15T10:26:59;21.47;;;19.47;;
8361;SDS011;4218;48.326;14.304;2024-02-15T10:29:28;24.03;;;21.63;;
8361;SDS011;4218;48.326;14.304;2024-02-15T10:31:54;24.80;;;22.77;;
8361;SDS011;4218;48.326;14.304;2024-02-15T10:34:21;25.90;;;23.47;;
8361;SDS011;4218;48.326;14.304;2024-02-15T10:36:48;25.80;;;23.73;;
8361;SDS011;4218;48.326;14.304;2024-02-15T10:39:14;31.23;;;28.63;;
8361;SDS011;4218;48.326;14.304;2024-02-15T10:41:47;28.00;;;23.30;;
8361;SDS011;4218;48.326;14.304;2024-02-15T10:44:17;28.73;;;25.97;;
8361;SDS011;4218;48.326;14.304;2024-02-15T10:46:44;31.37;;;28.17;;
8361;SDS011;4218;48.326;14.304;2024-02-15T10:49:19;33.63;;;28.70;;
8361;SDS011;4218;48.326;14.304;2024-02-15T10:51:48;25.33;;;22.87;;
8361;SDS011;4218;48.326;14.304;2024-02-15T10:54:40;34.70;;;31.53;;
8361;SDS011;4218;48.326;14.304;2024-02-15T10:57:08;28.37;;;25.37;;
8361;SDS011;4218;48.326;14.304;2024-02-15T10:59:35;27.10;;;24.13;;
8361;SDS011;4218;48.326;14.304;2024-02-15T11:02:19;31.87;;;28.73;;
8361;SDS011;4218;48.326;14.304;2024-02-15T11:04:52;36.23;;;26.60;;
8361;SDS011;4218;48.326;14.304;2024-02-15T11:07:25;31.20;;;25.47;;
8361;SDS011;4218;48.326;14.304;2024-02-15T11:09:54;30.13;;;26.93;;
8361;SDS011;4218;48.326;14.304;2024-02-15T11:12:21;31.63;;;26.57;;
8361;SDS011;4218;48.326;14.304;2024-02-15T11:14:51;30.57;;;27.23;;
8361;SDS011;4218;48.326;14.304;2024-02-15T11:20:08;30.17;;;27.07;;
8361;SDS011;4218;48.326;14.304;2024-02-15T11:22:35;29.10;;;26.30;;
8361;SDS011;4218;48.326;14.304;2024-02-15T11:25:02;25.20;;;22.57;;
8361;SDS011;4218;48.326;14.304;2024-02-15T11:27:37;25.93;;;23.53;;
8361;SDS011;4218;48.326;14.304;2024-02-15T11:30:03;26.27;;;23.90;;
8361;SDS011;4218;48.326;14.304;2024-02-15T11:32:41;29.53;;;21.70;;
8361;SDS011;4218;48.326;14.304;2024-02-15T11:35:29;21.97;;;20.07;;
8361;SDS011;4218;48.326;14.304;2024-02-15T11:37:56;21.23;;;19.07;;
8361;SDS011;4218;48.326;14.304;2024-02-15T11:40:29;25.97;;;22.30;;
8361;SDS011;4218;48.326;14.304;2024-02-15T11:46:21;24.33;;;22.03;;
8361;SDS011;4218;48.326;14.304;2024-02-15T11:48:49;23.20;;;20.97;;
8361;SDS011;4218;48.326;14.304;2024-02-15T11:51:31;25.73;;;23.40;;
8361;SDS011;4218;48.326;14.304;2024-02-15T11:56:54;25.47;;;21.83;;
8361;SDS011;4218;48.326;14.304;2024-02-15T11:59:19;26.20;;;24.00;;
8361;SDS011;4218;48.326;14.304;2024-02-15T12:01:56;25.03;;;22.97;;
8361;SDS011;4218;48.326;14.304;2024-02-15T12:04:40;27.70;;;25.33;;
8361;SDS011;4218;48.326;14.304;2024-02-15T12:07:24;19.77;;;17.70;;
8361;SDS011;4218;48.326;14.304;2024-02-15T12:10:15;20.87;;;19.27;;
8361;SDS011;4218;48.326;14.304;2024-02-15T12:13:00;26.03;;;23.93;;
8361;SDS011;4218;48.326;14.304;2024-02-15T12:15:55;24.53;;;22.43;;
8361;SDS011;4218;48.326;14.304;2024-02-15T12:18:43;22.00;;;20.17;;
8361;SDS011;4218;48.326;14.304;2024-02-15T12:21:09;26.53;;;24.30;;
8361;SDS011;4218;48.326;14.304;2024-02-15T12:23:40;23.00;;;20.97;;
8361;SDS011;4218;48.326;14.304;2024-02-15T12:26:06;22.00;;;19.87;;
8361;SDS011;4218;48.326;14.304;2024-02-15T12:28:32;22.63;;;20.20;;
8361;SDS011;4218;48.326;14.304;2024-02-15T12:30:59;23.30;;;21.33;;
8361;SDS011;4218;48.326;14.304;2024-02-15T12:33:26;21.80;;;19.50;;
8361;SDS011;4218;48.326;14.304;2024-02-15T12:35:52;21.67;;;19.97;;
8361;SDS011;4218;48.326;14.304;2024-02-15T12:38:30;20.57;;;18.80;;
8361;SDS011;4218;48.326;14.304;2024-02-15T12:40:55;22.33;;;19.90;;
8361;SDS011;4218;48.326;14.304;2024-02-15T12:43:21;22.63;;;20.87;;
8361;SDS011;4218;48.326;14.304;2024-02-15T12:45:47;22.03;;;20.53;;
8361;SDS011;4218;48.326;14.304;2024-02-15T12:48:12;22.30;;;20.57;;
8361;SDS011;4218;48.326;14.304;2024-02-15T12:50:40;21.70;;;19.97;;
8361;SDS011;4218;48.326;14.304;2024-02-15T12:53:06;20.67;;;18.87;;
8361;SDS011;4218;48.326;14.304;2024-02-15T12:55:33;25.20;;;22.57;;
8361;SDS011;4218;48.326;14.304;2024-02-15T12:58:03;47.17;;;43.40;;
8361;SDS011;4218;48.326;14.304;2024-02-15T13:00:33;19.93;;;18.37;;
8361;SDS011;4218;48.326;14.304;2024-02-15T13:03:02;20.83;;;19.00;;
8361;SDS011;4218;48.326;14.304;2024-02-15T13:05:29;19.80;;;18.20;;
8361;SDS011;4218;48.326;14.304;2024-02-15T13:07:56;23.43;;;21.47;;
8361;SDS011;4218;48.326;14.304;2024-02-15T13:10:23;22.30;;;20.37;;
8361;SDS011;4218;48.326;14.304;2024-02-15T13:12:51;20.13;;;18.53;;
8361;SDS011;4218;48.326;14.304;2024-02-15T13:15:17;19.40;;;18.03;;
8361;SDS011;4218;48.326;14.304;2024-02-15T13:17:46;18.63;;;17.23;;
8361;SDS011;4218;48.326;14.304;2024-02-15T13:20:21;21.00;;;19.13;;
8361;SDS011;4218;48.326;14.304;2024-02-15T13:23:02;19.17;;;17.50;;
8361;SDS011;4218;48.326;14.304;2024-02-15T13:25:49;17.20;;;15.97;;
8361;SDS011;4218;48.326;14.304;2024-02-15T13:28:17;19.30;;;18.00;;
8361;SDS011;4218;48.326;14.304;2024-02-15T13:30:43;16.17;;;15.07;;
8361;SDS011;4218;48.326;14.304;2024-02-15T13:33:10;17.57;;;16.03;;
8361;SDS011;4218;48.326;14.304;2024-02-15T13:35:36;19.90;;;18.50;;
8361;SDS011;4218;48.326;14.304;2024-02-15T13:38:01;17.20;;;15.80;;
8361;SDS011;4218;48.326;14.304;2024-02-15T13:40:27;21.50;;;20.13;;
8361;SDS011;4218;48.326;14.304;2024-02-15T13:42:55;17.33;;;15.83;;
8361;SDS011;4218;48.326;14.304;2024-02-15T13:45:30;17.97;;;16.73;;
8361;SDS011;4218;48.326;14.304;2024-02-15T13:48:02;23.00;;;21.23;;
8361;SDS011;4218;48.326;14.304;2024-02-15T13:50:29;19.30;;;17.83;;
8361;SDS011;4218;48.326;14.304;2024-02-15T13:52:55;18.80;;;17.20;;
8361;SDS011;4218;48.326;14.304;2024-02-15T13:55:22;20.50;;;19.13;;
8361;SDS011;4218;48.326;14.304;2024-02-15T13:57:50;19.47;;;18.27;;
8361;SDS011;4218;48.326;14.304;2024-02-15T14:00:15;27.33;;;25.10;;
8361;SDS011;4218;48.326;14.304;2024-02-15T14:02:48;21.23;;;19.80;;
8361;SDS011;4218;48.326;14.304;2024-02-15T14:05:14;20.67;;;19.37;;
8361;SDS011;4218;48.326;14.304;2024-02-15T14:07:39;20.23;;;18.93;;
8361;SDS011;4218;48.326;14.304;2024-02-15T14:10:05;17.73;;;16.37;;
8361;SDS011;4218;48.326;14.304;2024-02-15T14:12:31;17.40;;;16.27;;
8361;SDS011;4218;48.326;14.304;2024-02-15T14:14:56;18.53;;;17.43;;
8361;SDS011;4218;48.326;14.304;2024-02-15T14:17:22;25.77;;;24.07;;
8361;SDS011;4218;48.326;14.304;2024-02-15T14:19:47;19.07;;;17.67;;
8361;SDS011;4218;48.326;14.304;2024-02-15T14:22:13;24.03;;;22.27;;
8361;SDS011;4218;48.326;14.304;2024-02-15T14:24:44;24.07;;;22.33;;
8361;SDS011;4218;48.326;14.304;2024-02-15T14:27:10;25.53;;;23.83;;
8361;SDS011;4218;48.326;14.304;2024-02-15T14:29:36;24.73;;;22.67;;
8361;SDS011;4218;48.326;14.304;2024-02-15T14:32:10;24.17;;;22.63;;
8361;SDS011;4218;48.326;14.304;2024-02-15T14:34:57;23.03;;;21.40;;
8361;SDS011;4218;48.326;14.304;2024-02-15T14:37:22;32.47;;;30.20;;
8361;SDS011;4218;48.326;14.304;2024-02-15T14:39:49;20.87;;;19.67;;
8361;SDS011;4218;48.326;14.304;2024-02-15T14:42:14;20.40;;;19.10;;
8361;SDS011;4218;48.326;14.304;2024-02-15T14:44:39;37.70;;;35.40;;
8361;SDS011;4218;48.326;14.304;2024-02-15T14:47:05;21.77;;;20.23;;